Time;durP1;ratioP1;P1;durP2;ratioP2;P2;SDS_P1;SDS_P2;PMS_P1;PMS_P2;Temp;Humidity;BMP_temperature;BMP_pressure;BME280_temperature;BME280_humidity;BME280_pressure;Samples;Min_cycle;Max_cycle;Signal;HPM_P1;HPM_P2
2021/12/09 00:01:24;;;;;;;10.63;6.70;;;-0.50;99.90;;;;;;4955941;28;20787;-70
2021/12/09 00:04:01;;;;;;;14.20;7.23;;;-0.40;99.90;;;;;;4956318;28;20556;-71
2021/12/09 00:06:29;;;;;;;12.53;8.50;;;-0.50;99.90;;;;;;4956395;28;20406;-69
2021/12/09 00:09:03;;;;;;;10.50;6.47;;;-0.50;99.90;;;;;;4973018;28;20544;-71
2021/12/09 00:11:29;;;;;;;12.77;7.10;;;-0.50;99.90;;;;;;4975219;28;20421;-70
2021/12/09 00:13:56;;;;;;;16.47;7.67;;;-0.50;99.90;;;;;;4975225;28;20421;-70
2021/12/09 00:16:21;;;;;;;17.90;9.60;;;-0.60;99.90;;;;;;4974797;28;20413;-69
2021/12/09 00:18:47;;;;;;;9.73;7.90;;;-0.50;99.90;;;;;;4975120;28;20472;-69
2021/12/09 00:21:13;;;;;;;8.50;7.20;;;-0.50;99.90;;;;;;4975043;28;20182;-69
2021/12/09 00:23:39;;;;;;;11.90;7.83;;;-0.40;99.90;;;;;;4975043;28;20449;-68
2021/12/09 00:26:04;;;;;;;13.77;7.33;;;-0.40;99.90;;;;;;4974876;28;20420;-71
2021/12/09 00:28:30;;;;;;;13.00;8.43;;;-0.40;99.90;;;;;;4974971;28;20178;-69
2021/12/09 00:30:56;;;;;;;23.93;7.53;;;-0.50;99.90;;;;;;4974696;28;20169;-68
2021/12/09 00:33:21;;;;;;;31.97;7.77;;;-0.50;99.90;;;;;;4968999;28;20632;-69
2021/12/09 00:35:56;;;;;;;16.40;8.03;;;-0.50;99.90;;;;;;4974639;28;20178;-70
2021/12/09 00:38:34;;;;;;;16.13;7.70;;;-0.50;99.90;;;;;;4974599;28;20188;-69
2021/12/09 00:41:03;;;;;;;12.10;8.30;;;-0.60;99.90;;;;;;4974725;28;20475;-68
2021/12/09 00:43:29;;;;;;;6.23;5.63;;;-0.60;99.90;;;;;;4974349;28;20847;-70
2021/12/09 00:45:57;;;;;;;17.43;10.30;;;-0.70;99.90;;;;;;4974328;28;20413;-70
2021/12/09 00:48:23;;;;;;;21.60;9.33;;;-0.70;99.90;;;;;;4974442;28;20205;-69
2021/12/09 00:50:48;;;;;;;13.67;7.53;;;-0.60;99.90;;;;;;4974271;28;20436;-70
2021/12/09 00:53:14;;;;;;;20.33;9.57;;;-0.70;99.90;;;;;;4974443;28;20455;-69
2021/12/09 00:55:39;;;;;;;14.90;8.53;;;-0.70;99.90;;;;;;4974205;28;20170;-70
2021/12/09 00:58:05;;;;;;;17.23;8.83;;;-0.70;99.90;;;;;;4974243;28;20180;-70
2021/12/09 01:00:31;;;;;;;10.07;6.47;;;-0.70;99.90;;;;;;4974095;28;20225;-70
2021/12/09 01:02:58;;;;;;;15.43;6.00;;;-0.70;99.90;;;;;;4974155;28;20217;-71
2021/12/09 01:05:25;;;;;;;14.90;8.83;;;-0.70;99.90;;;;;;4973890;28;20412;-70
2021/12/09 01:07:50;;;;;;;19.73;9.10;;;-0.60;99.90;;;;;;4974439;28;20409;-70
2021/12/09 01:10:16;;;;;;;8.50;7.67;;;-0.60;99.90;;;;;;4973978;28;20463;-70
2021/12/09 01:12:43;;;;;;;9.13;8.27;;;-0.60;99.90;;;;;;4974467;28;20193;-69
2021/12/09 01:15:11;;;;;;;11.27;7.60;;;-0.70;99.90;;;;;;4975154;28;20177;-69
2021/12/09 01:17:37;;;;;;;18.53;6.73;;;-0.70;99.90;;;;;;4974024;28;20413;-69
2021/12/09 01:20:05;;;;;;;14.90;8.43;;;-0.70;99.90;;;;;;4973938;28;20411;-69
2021/12/09 01:22:37;;;;;;;19.13;7.70;;;-0.70;99.90;;;;;;4988372;28;20508;-68
2021/12/09 01:25:05;;;;;;;13.87;9.87;;;-0.70;99.90;;;;;;4973789;28;20433;-69
2021/12/09 01:27:35;;;;;;;13.57;7.30;;;-0.70;99.90;;;;;;4973532;28;20951;-69
2021/12/09 01:30:07;;;;;;;22.00;10.27;;;-0.70;99.90;;;;;;4973687;28;20496;-69
2021/12/09 01:32:33;;;;;;;13.03;6.93;;;-0.70;99.90;;;;;;4972163;28;20428;-71
2021/12/09 01:34:58;;;;;;;13.73;8.60;;;-0.70;99.90;;;;;;4969999;28;20504;-69
2021/12/09 01:37:24;;;;;;;16.10;11.30;;;-0.70;99.90;;;;;;4973648;28;20632;-69
2021/12/09 01:39:49;;;;;;;17.47;10.27;;;-0.70;99.90;;;;;;4972845;28;20173;-69
2021/12/09 01:42:16;;;;;;;10.73;7.30;;;-0.70;99.90;;;;;;4973607;28;20185;-70
2021/12/09 01:44:42;;;;;;;15.87;6.90;;;-0.70;99.90;;;;;;4973104;28;20670;-70
2021/12/09 01:47:08;;;;;;;9.23;8.03;;;-0.70;99.90;;;;;;4973157;28;20397;-69
2021/12/09 01:49:33;;;;;;;16.00;7.40;;;-0.70;99.90;;;;;;4973367;28;20406;-68
2021/12/09 01:51:59;;;;;;;11.17;6.80;;;-0.70;99.90;;;;;;4973055;28;20543;-69
2021/12/09 01:54:24;;;;;;;15.97;8.20;;;-0.80;99.90;;;;;;4973236;28;20184;-70
2021/12/09 01:56:50;;;;;;;14.73;11.47;;;-0.80;99.90;;;;;;4973085;28;20205;-70
2021/12/09 01:59:16;;;;;;;14.13;9.97;;;-0.80;99.90;;;;;;4973408;28;20553;-70
2021/12/09 02:01:41;;;;;;;13.63;7.33;;;-0.80;99.90;;;;;;4973026;28;20427;-70
2021/12/09 02:04:09;;;;;;;14.00;9.63;;;-0.80;99.90;;;;;;4973290;28;20639;-70
2021/12/09 02:06:40;;;;;;;18.27;8.17;;;-0.80;99.90;;;;;;4973068;28;20560;-71
2021/12/09 02:09:06;;;;;;;18.30;8.67;;;-0.80;99.90;;;;;;4973061;28;20409;-70
2021/12/09 02:11:31;;;;;;;13.83;8.77;;;-0.80;99.90;;;;;;4973088;28;20443;-70
2021/12/09 02:13:57;;;;;;;9.40;7.10;;;-0.80;99.90;;;;;;4972769;28;20436;-71
2021/12/09 02:16:24;;;;;;;19.60;8.87;;;-0.80;99.90;;;;;;4972870;28;20177;-71
2021/12/09 02:18:49;;;;;;;13.70;7.40;;;-0.70;99.90;;;;;;4973129;28;20173;-71
2021/12/09 02:21:20;;;;;;;15.37;9.20;;;-0.80;99.90;;;;;;4972941;28;20460;-70
2021/12/09 02:23:51;;;;;;;12.90;9.97;;;-0.80;99.90;;;;;;4972886;28;20280;-71
2021/12/09 02:26:20;;;;;;;9.27;7.40;;;-0.80;99.90;;;;;;4972894;28;20405;-71
2021/12/09 02:28:48;;;;;;;19.03;7.47;;;-0.80;99.90;;;;;;4972696;28;20923;-71
2021/12/09 02:31:17;;;;;;;18.23;10.40;;;-0.80;99.90;;;;;;4973060;28;20880;-70
2021/12/09 02:33:42;;;;;;;8.77;7.80;;;-0.90;99.90;;;;;;4967685;28;20472;-70
2021/12/09 02:36:08;;;;;;;9.90;7.70;;;-0.80;99.90;;;;;;4971973;28;20460;-69
2021/12/09 02:38:41;;;;;;;9.37;8.53;;;-0.80;99.90;;;;;;4972976;28;20174;-69
2021/12/09 02:41:09;;;;;;;19.20;7.33;;;-0.80;99.90;;;;;;4957788;28;20233;-69
2021/12/09 02:43:35;;;;;;;16.93;8.43;;;-0.80;99.90;;;;;;4952976;28;20473;-70
2021/12/09 02:46:01;;;;;;;7.57;6.10;;;-0.80;99.90;;;;;;4953439;28;20452;-70
2021/12/09 02:48:27;;;;;;;45.80;8.43;;;-0.90;99.90;;;;;;4965576;28;20421;-70
2021/12/09 02:50:53;;;;;;;16.10;8.13;;;-0.90;99.90;;;;;;4968387;28;20174;-70
2021/12/09 02:53:19;;;;;;;21.67;8.17;;;-0.90;99.90;;;;;;4976426;28;20445;-69
2021/12/09 02:55:45;;;;;;;21.57;11.20;;;-1.00;99.90;;;;;;4976688;28;20417;-70
2021/12/09 02:58:11;;;;;;;14.33;6.90;;;-0.90;99.90;;;;;;4976661;28;20424;-69
2021/12/09 03:01:07;;;;;;;24.23;10.70;;;-0.90;99.90;;;;;;4976675;28;20405;-70
2021/12/09 03:03:33;;;;;;;13.43;11.10;;;-0.80;99.90;;;;;;4977003;28;20503;-70
2021/12/09 03:05:59;;;;;;;21.40;9.03;;;-0.80;99.90;;;;;;4977145;28;20834;-70
2021/12/09 03:08:35;;;;;;;18.27;10.37;;;-0.80;99.90;;;;;;4976197;28;20185;-70
2021/12/09 03:11:06;;;;;;;12.27;11.17;;;-0.80;99.90;;;;;;4976399;28;20404;-70
2021/12/09 03:13:32;;;;;;;9.83;5.37;;;-0.80;99.90;;;;;;4972361;28;20520;-70
2021/12/09 03:15:57;;;;;;;23.20;10.00;;;-0.80;99.90;;;;;;4956138;29;20489;-69
2021/12/09 03:18:26;;;;;;;18.40;5.90;;;-0.70;99.90;;;;;;4956446;28;20233;-70
2021/12/09 03:20:51;;;;;;;14.30;8.17;;;-0.80;99.90;;;;;;4956568;29;20245;-70
2021/12/09 03:23:17;;;;;;;22.57;10.37;;;-0.70;99.90;;;;;;4956476;29;20544;-70
2021/12/09 03:25:42;;;;;;;14.23;8.40;;;-0.80;99.90;;;;;;4956222;28;20320;-70
2021/12/09 03:28:08;;;;;;;10.13;7.27;;;-0.70;99.90;;;;;;4956350;29;20175;-71
2021/12/09 03:30:33;;;;;;;14.13;5.70;;;-0.70;99.90;;;;;;4956149;28;20641;-69
2021/12/09 03:32:59;;;;;;;9.90;5.23;;;-0.70;99.90;;;;;;4987046;28;20190;-69
2021/12/09 03:35:25;;;;;;;17.43;9.17;;;-0.70;99.90;;;;;;4955986;29;20189;-69
2021/12/09 03:37:51;;;;;;;23.00;9.90;;;-0.70;99.90;;;;;;4956239;28;20836;-70
2021/12/09 03:40:17;;;;;;;24.23;11.27;;;-0.70;99.90;;;;;;4956452;28;20418;-69
2021/12/09 03:42:43;;;;;;;12.27;9.67;;;-0.70;99.90;;;;;;4955946;28;20289;-70
2021/12/09 03:45:10;;;;;;;9.20;8.50;;;-0.80;99.90;;;;;;4970856;28;20253;-70
2021/12/09 03:47:36;;;;;;;15.90;9.10;;;-0.80;99.90;;;;;;4956024;28;20504;-70
2021/12/09 03:50:04;;;;;;;14.90;6.10;;;-0.80;99.90;;;;;;4960657;28;20449;-70
2021/12/09 03:52:30;;;;;;;14.90;8.93;;;-0.80;99.90;;;;;;4972783;28;20484;-70
2021/12/09 03:54:59;;;;;;;16.37;7.20;;;-0.80;99.90;;;;;;4974770;28;20436;-72
2021/12/09 03:57:24;;;;;;;13.33;6.03;;;-0.70;99.90;;;;;;4989204;28;20279;-69
2021/12/09 03:59:51;;;;;;;18.47;11.00;;;-0.70;99.90;;;;;;4994895;28;20808;-71
2021/12/09 04:02:17;;;;;;;13.43;7.50;;;-0.70;99.90;;;;;;4994600;28;20247;-70
2021/12/09 04:04:44;;;;;;;21.33;8.50;;;-0.70;99.90;;;;;;4986437;28;20465;-70
2021/12/09 04:07:09;;;;;;;14.97;8.37;;;-0.70;99.90;;;;;;4975229;28;20528;-70
2021/12/09 04:09:35;;;;;;;25.47;10.40;;;-0.60;99.90;;;;;;4975319;28;20489;-70
2021/12/09 04:12:01;;;;;;;16.13;5.83;;;-0.60;99.90;;;;;;4975303;28;20276;-70
2021/12/09 04:14:26;;;;;;;15.03;7.00;;;-0.70;99.90;;;;;;4964510;28;20178;-70
2021/12/09 04:16:52;;;;;;;13.70;7.40;;;-0.70;99.90;;;;;;4955903;28;20716;-70
2021/12/09 04:19:17;;;;;;;18.50;7.67;;;-0.70;99.90;;;;;;4955526;29;20279;-70
2021/12/09 04:21:44;;;;;;;19.10;8.40;;;-0.60;99.90;;;;;;4955147;28;20673;-69
2021/12/09 04:24:11;;;;;;;14.33;7.50;;;-0.60;99.90;;;;;;4955062;28;20198;-68
2021/12/09 04:26:39;;;;;;;12.60;6.70;;;-0.60;99.90;;;;;;4954742;28;20426;-69
2021/12/09 04:29:07;;;;;;;14.73;8.80;;;-0.70;99.90;;;;;;4955066;28;20496;-70
2021/12/09 04:31:33;;;;;;;17.23;7.67;;;-0.80;99.90;;;;;;4954942;29;20439;-69
2021/12/09 04:33:59;;;;;;;13.50;11.17;;;-0.80;99.90;;;;;;4955353;29;20775;-70
2021/12/09 04:36:25;;;;;;;20.60;9.90;;;-0.70;99.90;;;;;;4955114;28;20416;-71
2021/12/09 04:38:52;;;;;;;19.40;10.53;;;-0.70;99.90;;;;;;4955241;28;20182;-70
2021/12/09 04:41:19;;;;;;;11.27;6.90;;;-0.70;99.90;;;;;;4955092;28;20418;-70
2021/12/09 04:43:44;;;;;;;11.57;5.97;;;-0.70;99.90;;;;;;4954891;29;20553;-70
2021/12/09 04:46:11;;;;;;;9.50;6.40;;;-0.80;99.90;;;;;;4954742;28;20853;-70
2021/12/09 04:48:37;;;;;;;12.57;10.00;;;-0.80;99.90;;;;;;4954773;29;20174;-70
2021/12/09 04:51:03;;;;;;;17.83;7.73;;;-0.80;99.90;;;;;;4966510;28;20461;-70
2021/12/09 04:53:29;;;;;;;9.57;7.43;;;-0.80;99.90;;;;;;4962309;28;20524;-71
2021/12/09 04:55:54;;;;;;;12.30;8.13;;;-0.90;99.90;;;;;;4974290;28;20413;-69
2021/12/09 04:58:20;;;;;;;10.83;6.83;;;-0.90;99.90;;;;;;4973877;28;20248;-69
2021/12/09 05:00:48;;;;;;;13.37;9.47;;;-0.90;99.90;;;;;;4974040;28;20173;-69
2021/12/09 05:03:14;;;;;;;16.03;7.73;;;-0.80;99.90;;;;;;4973818;28;20444;-69
2021/12/09 05:05:43;;;;;;;11.37;6.63;;;-0.80;99.90;;;;;;4973603;28;20397;-69
2021/12/09 05:08:11;;;;;;;15.50;9.20;;;-0.90;99.90;;;;;;4972587;28;20468;-69
2021/12/09 05:10:58;;;;;;;15.73;5.93;;;-0.90;99.90;;;;;;4970245;28;21374;-69
2021/12/09 05:13:27;;;;;;;24.10;10.37;;;-0.90;99.90;;;;;;4970647;28;20833;-69
2021/12/09 05:15:55;;;;;;;15.10;8.40;;;-0.80;99.90;;;;;;4953998;28;20406;-70
2021/12/09 05:18:22;;;;;;;9.73;7.47;;;-0.80;99.90;;;;;;4954512;28;20456;-69
2021/12/09 05:20:48;;;;;;;13.33;5.77;;;-0.80;99.90;;;;;;4969236;28;20450;-69
2021/12/09 05:23:15;;;;;;;11.00;7.33;;;-0.80;99.90;;;;;;4954265;28;20504;-69
2021/12/09 05:25:41;;;;;;;10.97;6.93;;;-0.70;99.90;;;;;;4954104;28;20409;-69
2021/12/09 05:28:08;;;;;;;15.90;7.60;;;-0.70;99.90;;;;;;4954183;28;20434;-69
2021/12/09 05:32:08;;;;;;;9.80;7.87;;;-0.70;99.90;;;;;;4954099;28;20422;-69
2021/12/09 05:33:27;;;;;;;17.13;11.57;;;-0.80;99.90;;;;;;4953560;28;20433;-69
2021/12/09 05:35:54;;;;;;;16.93;11.47;;;-0.80;99.90;;;;;;4968519;28;20418;-69
2021/12/09 05:38:19;;;;;;;13.00;10.57;;;-0.70;99.90;;;;;;4953982;28;20774;-69
2021/12/09 05:40:45;;;;;;;15.17;8.03;;;-0.80;99.90;;;;;;4953843;28;20413;-69
2021/12/09 05:43:11;;;;;;;8.53;7.37;;;-0.80;99.90;;;;;;4953490;28;20217;-69
2021/12/09 05:45:36;;;;;;;8.57;7.70;;;-0.80;99.90;;;;;;4953806;28;20171;-69
2021/12/09 05:48:04;;;;;;;14.00;8.30;;;-0.80;99.90;;;;;;4953750;28;20242;-69
2021/12/09 05:50:29;;;;;;;18.23;7.77;;;-0.80;99.90;;;;;;4963837;28;20216;-69
2021/12/09 05:52:55;;;;;;;12.53;8.57;;;-0.80;99.90;;;;;;4972990;28;20465;-69
2021/12/09 05:55:20;;;;;;;11.37;6.20;;;-0.80;99.90;;;;;;4969032;28;20182;-70
2021/12/09 05:57:46;;;;;;;18.60;8.97;;;-0.80;99.90;;;;;;4953903;28;20680;-69
2021/12/09 06:00:12;;;;;;;12.17;8.70;;;-0.80;99.90;;;;;;4953400;28;20257;-69
2021/12/09 06:02:37;;;;;;;16.40;8.10;;;-0.80;99.90;;;;;;4953483;28;20703;-69
2021/12/09 06:05:04;;;;;;;9.10;6.27;;;-0.80;99.90;;;;;;4953776;28;20413;-69
2021/12/09 06:07:29;;;;;;;23.30;10.90;;;-0.80;99.90;;;;;;4958535;28;20174;-69
2021/12/09 06:09:55;;;;;;;7.43;6.30;;;-0.80;99.90;;;;;;4972761;28;20513;-69
2021/12/09 06:12:21;;;;;;;12.93;8.60;;;-0.70;99.90;;;;;;4972628;28;20189;-69
2021/12/09 06:14:47;;;;;;;7.50;6.90;;;-0.80;99.90;;;;;;4959223;28;20913;-69
2021/12/09 06:17:12;;;;;;;20.60;8.03;;;-0.80;99.90;;;;;;4954255;28;20209;-69
2021/12/09 06:19:38;;;;;;;19.80;9.67;;;-0.80;99.90;;;;;;4953602;29;20223;-69
2021/12/09 06:22:03;;;;;;;17.80;7.00;;;-0.80;99.90;;;;;;4953599;28;20206;-69
2021/12/09 06:24:29;;;;;;;15.80;7.40;;;-0.70;99.90;;;;;;4953691;28;20206;-69
2021/12/09 06:26:54;;;;;;;18.90;8.20;;;-0.70;99.90;;;;;;4960037;29;20634;-69
2021/12/09 06:29:20;;;;;;;19.67;9.30;;;-0.70;99.90;;;;;;4960310;28;20188;-69
2021/12/09 06:31:45;;;;;;;15.37;9.83;;;-0.60;99.90;;;;;;4959772;28;20205;-69
2021/12/09 06:34:12;;;;;;;17.23;9.17;;;-0.60;99.90;;;;;;4959732;28;20233;-69
2021/12/09 06:36:39;;;;;;;16.30;8.80;;;-0.70;99.90;;;;;;4959682;28;20184;-69
2021/12/09 06:39:05;;;;;;;13.87;7.80;;;-0.70;99.90;;;;;;4959660;28;20476;-69
2021/12/09 06:41:31;;;;;;;20.80;11.70;;;-0.70;99.90;;;;;;4959742;28;20429;-70
2021/12/09 06:43:57;;;;;;;16.63;8.50;;;-0.70;99.90;;;;;;4960627;28;20544;-69
2021/12/09 06:46:22;;;;;;;14.00;9.40;;;-0.70;99.90;;;;;;4959421;29;20402;-69
2021/12/09 06:48:48;;;;;;;16.47;8.13;;;-0.70;99.90;;;;;;4959573;29;20181;-69
2021/12/09 06:51:14;;;;;;;21.77;10.43;;;-0.60;99.90;;;;;;4975181;28;20177;-69
2021/12/09 06:53:39;;;;;;;11.73;7.67;;;-0.70;99.90;;;;;;4979053;28;20166;-69
2021/12/09 06:56:06;;;;;;;11.17;8.23;;;-0.70;99.90;;;;;;4978217;28;20490;-70
2021/12/09 06:58:31;;;;;;;10.37;7.60;;;-0.70;99.90;;;;;;4978835;28;20260;-69
2021/12/09 07:00:58;;;;;;;18.40;10.70;;;-0.60;99.90;;;;;;4978740;28;20458;-69
2021/12/09 07:03:23;;;;;;;18.00;6.60;;;-0.80;99.90;;;;;;4978929;28;20519;-70
2021/12/09 07:05:51;;;;;;;8.50;5.83;;;-0.70;99.90;;;;;;4978772;28;20491;-70
2021/12/09 07:08:18;;;;;;;27.90;11.47;;;-0.60;99.90;;;;;;4978755;28;20575;-70
2021/12/09 07:10:43;;;;;;;13.13;7.50;;;-0.70;99.90;;;;;;4978827;28;20564;-69
2021/12/09 07:13:09;;;;;;;17.30;9.10;;;-0.70;99.90;;;;;;4978447;28;20832;-70
2021/12/09 07:15:35;;;;;;;13.03;7.80;;;-0.70;99.90;;;;;;4977963;28;20173;-70
2021/12/09 07:18:01;;;;;;;20.53;9.37;;;-0.70;99.90;;;;;;4978493;28;20205;-69
2021/12/09 07:20:28;;;;;;;11.77;7.40;;;-0.70;99.90;;;;;;4978521;28;20177;-69
2021/12/09 07:22:54;;;;;;;23.13;12.17;;;-0.60;99.90;;;;;;4978041;28;20458;-69
2021/12/09 07:25:22;;;;;;;14.20;10.37;;;-0.60;99.90;;;;;;4978585;28;20427;-69
2021/12/09 07:27:48;;;;;;;11.70;6.77;;;-0.70;99.90;;;;;;4978667;28;20436;-69
2021/12/09 07:30:15;;;;;;;16.60;8.30;;;-0.70;99.90;;;;;;4978733;28;20503;-70
2021/12/09 07:32:42;;;;;;;10.13;9.23;;;-0.60;99.90;;;;;;4978456;28;20488;-69
2021/12/09 07:35:09;;;;;;;11.20;8.23;;;-0.60;99.90;;;;;;4978461;28;20930;-69
2021/12/09 07:37:37;;;;;;;21.90;9.20;;;-0.60;99.90;;;;;;4975454;28;20427;-70
2021/12/09 07:40:05;;;;;;;9.77;6.90;;;-0.70;99.90;;;;;;4975212;28;20402;-70
2021/12/09 07:42:31;;;;;;;13.57;8.40;;;-0.70;99.90;;;;;;4975152;28;20506;-70
2021/12/09 07:44:56;;;;;;;16.03;8.83;;;-0.70;99.90;;;;;;4975443;28;20418;-70
2021/12/09 07:47:22;;;;;;;16.57;7.67;;;-0.70;99.90;;;;;;4975251;28;20621;-70
2021/12/09 07:49:47;;;;;;;19.87;9.50;;;-0.70;99.90;;;;;;4975263;28;20177;-70
2021/12/09 07:52:13;;;;;;;17.63;7.57;;;-0.70;99.90;;;;;;4975180;28;20198;-70
2021/12/09 07:54:38;;;;;;;14.03;6.87;;;-0.70;99.90;;;;;;4969300;28;20186;-70
2021/12/09 07:57:04;;;;;;;13.30;9.23;;;-0.70;99.90;;;;;;4974885;28;20174;-70
2021/12/09 07:59:30;;;;;;;18.37;10.23;;;-0.60;99.90;;;;;;4974888;28;20511;-70
2021/12/09 08:01:55;;;;;;;11.23;8.27;;;-0.70;99.90;;;;;;4974625;28;20186;-70
2021/12/09 08:04:21;;;;;;;12.30;8.10;;;-0.80;99.90;;;;;;4974546;28;20525;-71
2021/12/09 08:06:46;;;;;;;19.77;7.50;;;-0.70;99.90;;;;;;4959497;28;20186;-70
2021/12/09 08:09:12;;;;;;;17.80;6.73;;;-0.70;99.90;;;;;;4993020;28;20161;-70
2021/12/09 08:11:39;;;;;;;11.13;7.10;;;-0.70;99.90;;;;;;4994031;28;20193;-71
2021/12/09 08:14:05;;;;;;;14.53;8.33;;;-0.70;99.90;;;;;;4986698;28;20228;-71
2021/12/09 08:16:37;;;;;;;16.20;6.97;;;-0.60;99.90;;;;;;4974977;28;20405;-72
2021/12/09 08:19:07;;;;;;;13.80;9.17;;;-0.70;99.90;;;;;;4975927;28;20401;-74
2021/12/09 08:21:35;;;;;;;12.87;11.53;;;-0.70;99.90;;;;;;4975555;28;20986;-72
2021/12/09 08:24:00;;;;;;;8.63;7.37;;;-0.70;99.90;;;;;;4974902;28;20532;-72
2021/12/09 08:26:26;;;;;;;16.17;7.00;;;-0.70;99.90;;;;;;4974556;28;20488;-71
2021/12/09 08:28:52;;;;;;;8.87;5.73;;;-0.80;99.90;;;;;;4974773;28;20174;-71
2021/12/09 08:31:17;;;;;;;20.97;9.37;;;-0.80;99.90;;;;;;4974778;28;20409;-71
2021/12/09 08:33:43;;;;;;;15.40;8.10;;;-0.80;99.90;;;;;;4973769;28;20201;-72
2021/12/09 08:36:10;;;;;;;18.13;10.10;;;-0.70;99.90;;;;;;4974062;28;20185;-71
2021/12/09 08:38:36;;;;;;;12.70;8.00;;;-0.70;99.90;;;;;;4974065;28;20174;-71
2021/12/09 08:41:02;;;;;;;12.60;6.67;;;-0.60;99.90;;;;;;4968934;28;20486;-71
2021/12/09 08:43:28;;;;;;;14.10;7.63;;;-0.60;99.90;;;;;;4973819;28;20465;-71
2021/12/09 08:45:54;;;;;;;15.90;7.70;;;-0.60;99.90;;;;;;4973836;28;20431;-71
2021/12/09 08:48:21;;;;;;;11.13;7.90;;;-0.60;99.90;;;;;;4953849;28;20186;-71
2021/12/09 08:50:47;;;;;;;19.97;8.10;;;-0.60;99.90;;;;;;4959313;28;20433;-72
2021/12/09 08:53:15;;;;;;;12.27;6.87;;;-0.60;99.90;;;;;;4973080;28;20927;-71
2021/12/09 08:55:41;;;;;;;13.90;7.43;;;-0.60;99.90;;;;;;4974069;28;20193;-71
2021/12/09 08:58:08;;;;;;;21.53;8.97;;;-0.60;99.90;;;;;;4973312;28;20947;-71
2021/12/09 09:00:35;;;;;;;13.97;6.83;;;-0.60;99.90;;;;;;4973107;28;20394;-71
2021/12/09 09:03:02;;;;;;;15.63;10.00;;;-0.50;99.90;;;;;;4956145;28;20529;-71
2021/12/09 09:05:29;;;;;;;19.53;9.57;;;-0.60;99.90;;;;;;4957498;28;20772;-71
2021/12/09 09:07:55;;;;;;;23.60;10.87;;;-0.50;99.90;;;;;;4957876;28;20483;-72
2021/12/09 09:10:24;;;;;;;11.30;6.13;;;-0.40;99.90;;;;;;4963322;28;20788;-71
2021/12/09 09:12:50;;;;;;;13.93;10.47;;;-0.40;99.90;;;;;;4973861;28;20437;-71
2021/12/09 09:15:19;;;;;;;22.37;11.67;;;-0.40;99.90;;;;;;4956165;28;20437;-71
2021/12/09 09:17:44;;;;;;;11.67;8.93;;;-0.40;99.90;;;;;;4973501;28;20420;-71
2021/12/09 09:20:13;;;;;;;16.80;9.50;;;-0.30;99.90;;;;;;4969382;28;20425;-71
2021/12/09 09:22:39;;;;;;;12.10;10.90;;;-0.40;99.90;;;;;;4970166;28;20198;-72
2021/12/09 09:25:08;;;;;;;25.27;11.47;;;-0.30;99.90;;;;;;4959824;28;20469;-72
2021/12/09 09:27:34;;;;;;;14.53;9.57;;;-0.30;99.90;;;;;;4962047;28;20943;-73
2021/12/09 09:30:00;;;;;;;13.40;8.97;;;-0.30;99.90;;;;;;4969270;28;20457;-72
2021/12/09 09:32:25;;;;;;;22.07;8.80;;;-0.20;99.90;;;;;;4954744;28;20904;-71
2021/12/09 09:34:54;;;;;;;14.33;11.97;;;-0.20;99.90;;;;;;4965815;28;20209;-69
2021/12/09 09:37:20;;;;;;;14.47;8.90;;;-0.20;99.90;;;;;;4958729;28;20690;-71
2021/12/09 09:39:47;;;;;;;31.33;14.30;;;-0.40;99.90;;;;;;4965206;28;20787;-70
2021/12/09 09:44:48;;;;;;;16.57;8.97;;;-0.30;99.90;;;;;;4954095;28;20465;-70
2021/12/09 09:47:16;;;;;;;13.87;8.23;;;-0.30;99.90;;;;;;4954347;28;20434;-70
2021/12/09 09:49:42;;;;;;;21.07;10.07;;;-0.30;99.90;;;;;;4968050;28;20747;-70
2021/12/09 09:52:10;;;;;;;18.37;7.63;;;-0.30;99.90;;;;;;4967166;28;20907;-71
2021/12/09 09:54:37;;;;;;;25.10;11.77;;;-0.20;99.90;;;;;;4957504;28;21098;-70
2021/12/09 09:57:04;;;;;;;13.17;7.87;;;-0.10;99.90;;;;;;4954954;28;20536;-70
2021/12/09 09:59:30;;;;;;;14.30;9.80;;;-0.20;99.90;;;;;;4962258;28;20425;-71
2021/12/09 10:01:55;;;;;;;9.10;7.47;;;-0.10;99.90;;;;;;4973125;28;20441;-70
2021/12/09 10:04:33;;;;;;;28.93;10.77;;;0.00;99.90;;;;;;4971414;28;20238;-71
2021/12/09 10:06:59;;;;;;;11.80;6.53;;;0.00;99.90;;;;;;4969425;28;20174;-72
2021/12/09 10:09:25;;;;;;;14.50;8.37;;;0.10;99.90;;;;;;4979769;28;20416;-71
2021/12/09 10:11:51;;;;;;;28.80;11.87;;;0.20;99.90;;;;;;4973145;28;20510;-71
2021/12/09 10:14:20;;;;;;;19.47;11.27;;;0.20;99.90;;;;;;4965947;28;20493;-71
2021/12/09 10:17:07;;;;;;;16.00;7.53;;;0.20;99.90;;;;;;4967006;28;20512;-71
2021/12/09 10:19:34;;;;;;;27.17;8.70;;;0.00;99.90;;;;;;4973176;28;20472;-72
2021/12/09 10:22:09;;;;;;;13.73;10.20;;;0.00;99.90;;;;;;4965093;28;20544;-71
2021/12/09 10:24:35;;;;;;;15.60;9.90;;;-0.10;99.90;;;;;;4956123;28;20453;-71
2021/12/09 10:27:01;;;;;;;14.23;9.53;;;0.00;99.90;;;;;;4963950;28;20488;-71
2021/12/09 10:29:39;;;;;;;18.77;11.57;;;0.00;99.90;;;;;;4953499;28;20418;-71
2021/12/09 10:32:10;;;;;;;14.67;9.20;;;-0.10;99.90;;;;;;4957727;28;20473;-71
2021/12/09 10:34:41;;;;;;;9.70;6.17;;;-0.20;99.90;;;;;;4970446;28;20433;-71
2021/12/09 10:37:07;;;;;;;17.10;10.07;;;-0.20;99.90;;;;;;4953494;28;20928;-72
2021/12/09 10:39:52;;;;;;;14.07;8.40;;;-0.10;99.90;;;;;;4966488;28;20421;-71
2021/12/09 10:42:27;;;;;;;20.80;10.77;;;-0.20;99.90;;;;;;4953566;28;20202;-71
2021/12/09 10:45:03;;;;;;;14.13;7.90;;;-0.20;99.90;;;;;;4960324;28;20537;-70
2021/12/09 10:47:57;;;;;;;18.93;8.97;;;-0.10;99.90;;;;;;4966053;28;20936;-71
2021/12/09 10:50:41;;;;;;;11.93;9.23;;;-0.10;99.90;;;;;;4974007;28;20427;-71
2021/12/09 10:55:46;;;;;;;24.40;12.00;;;0.00;99.90;;;;;;4972923;28;20938;-70
2021/12/09 10:58:17;;;;;;;15.83;8.17;;;0.00;99.90;;;;;;4972708;28;20830;-70
2021/12/09 11:00:52;;;;;;;12.33;8.30;;;0.10;99.90;;;;;;4956593;28;20449;-71
2021/12/09 11:03:25;;;;;;;10.07;7.90;;;0.00;99.90;;;;;;4966781;28;20463;-71
2021/12/09 11:05:52;;;;;;;23.47;12.73;;;0.10;99.90;;;;;;4962896;28;20494;-70
2021/12/09 11:08:43;;;;;;;21.37;11.27;;;0.10;99.90;;;;;;4972497;28;20922;-72
2021/12/09 11:11:15;;;;;;;12.90;8.40;;;0.10;99.90;;;;;;4972494;28;20424;-71
2021/12/09 11:13:47;;;;;;;14.10;7.60;;;0.20;99.90;;;;;;4971289;28;20964;-70
2021/12/09 11:16:24;;;;;;;13.73;8.70;;;0.20;99.90;;;;;;4966230;28;20425;-72
2021/12/09 11:18:53;;;;;;;17.90;8.33;;;0.20;99.90;;;;;;4962781;28;20409;-71
2021/12/09 11:21:32;;;;;;;20.77;10.77;;;0.10;99.90;;;;;;4957299;28;20414;-71
2021/12/09 11:24:06;;;;;;;13.33;7.80;;;0.10;99.90;;;;;;4958455;28;20465;-71
2021/12/09 11:26:57;;;;;;;12.60;9.33;;;0.10;99.90;;;;;;4967948;28;20493;-71
2021/12/09 11:29:24;;;;;;;5.83;5.37;;;0.10;99.90;;;;;;4956808;28;20410;-70
2021/12/09 11:32:07;;;;;;;16.90;7.60;;;0.20;99.90;;;;;;4957573;28;20426;-70
2021/12/09 11:34:55;;;;;;;9.63;6.77;;;0.30;99.90;;;;;;4976089;28;20407;-71
2021/12/09 11:40:18;;;;;;;11.20;8.43;;;0.30;99.90;;;;;;4959810;28;21002;-70
2021/12/09 11:42:51;;;;;;;13.20;6.60;;;0.30;99.90;;;;;;4972117;28;20453;-71
2021/12/09 11:45:25;;;;;;;25.57;11.30;;;0.30;99.90;;;;;;4975728;28;20456;-72
2021/12/09 11:47:53;;;;;;;13.70;8.00;;;0.30;99.90;;;;;;4975705;28;20413;-70
2021/12/09 11:50:22;;;;;;;11.27;8.20;;;0.40;99.90;;;;;;4975788;28;20417;-71
2021/12/09 11:52:48;;;;;;;18.13;9.60;;;0.40;99.90;;;;;;4970309;28;20442;-71
2021/12/09 11:55:18;;;;;;;11.47;8.33;;;0.40;99.90;;;;;;4961487;28;20893;-71
2021/12/09 11:58:04;;;;;;;18.13;10.20;;;0.40;99.90;;;;;;4976674;28;20415;-71
2021/12/09 12:13:06;;;;;;;22.23;11.20;;;0.30;99.90;;;;;;4966460;28;20505;-70
2021/12/09 12:27:11;;;;;;;13.57;7.90;;;0.50;99.90;;;;;;4961844;28;20416;-70
2021/12/09 12:38:17;;;;;;;12.90;9.10;;;0.60;99.90;;;;;;4961233;28;20240;-71
2021/12/09 12:41:01;;;;;;;14.70;8.27;;;0.50;99.90;;;;;;4947721;28;20501;-70
2021/12/09 12:43:35;;;;;;;12.70;7.60;;;0.60;99.90;;;;;;4969631;28;20464;-72
2021/12/09 12:51:48;;;;;;;17.57;10.30;;;0.50;99.90;;;;;;4963970;28;20770;-70
2021/12/09 12:54:26;;;;;;;17.77;8.60;;;0.50;99.90;;;;;;4956018;28;20442;-70
2021/12/09 12:56:57;;;;;;;12.90;8.77;;;0.50;99.90;;;;;;4975270;28;20443;-70
2021/12/09 12:59:34;;;;;;;12.17;8.23;;;0.40;99.90;;;;;;4976000;28;20446;-70
2021/12/09 13:02:00;;;;;;;17.83;9.17;;;0.30;99.90;;;;;;4963194;28;20852;-70
2021/12/09 13:10:43;;;;;;;9.03;7.13;;;0.20;99.90;;;;;;4974667;28;20492;-71
2021/12/09 13:21:35;;;;;;;11.00;5.67;;;0.20;99.90;;;;;;4973516;28;20476;-70
2021/12/09 13:24:20;;;;;;;10.40;9.40;;;0.10;99.90;;;;;;4959629;28;20451;-71
2021/12/09 13:27:05;;;;;;;20.80;9.33;;;0.20;99.90;;;;;;4973956;28;20409;-70
2021/12/09 13:29:41;;;;;;;24.30;9.43;;;0.20;99.90;;;;;;4960731;28;20974;-69
2021/12/09 13:32:27;;;;;;;13.47;7.30;;;0.20;99.90;;;;;;4970946;28;20921;-70
2021/12/09 13:35:07;;;;;;;10.63;7.63;;;0.20;99.90;;;;;;4953611;28;20756;-70
2021/12/09 13:37:53;;;;;;;14.47;7.90;;;0.20;99.90;;;;;;4971366;28;20425;-70
2021/12/09 13:40:29;;;;;;;15.77;8.77;;;0.20;99.90;;;;;;4954602;28;20432;-70
2021/12/09 13:46:07;;;;;;;18.83;8.67;;;0.20;99.90;;;;;;4957507;28;20425;-71
2021/12/09 13:48:44;;;;;;;13.07;8.20;;;0.30;99.90;;;;;;4958318;28;20832;-70